sensor_id;sensor_type;location;lat;lon;timestamp;pressure;altitude;pressure_sealevel;temperature;humidity
34205;BME280;20471;49.680;20.074;2023-02-28T00:01:26;98239.02;;;-0.81;67.07
34205;BME280;20471;49.680;20.074;2023-02-28T00:03:54;98247.48;;;-0.80;67.04
34205;BME280;20471;49.680;20.074;2023-02-28T00:06:22;98247.87;;;-0.83;67.12
34205;BME280;20471;49.680;20.074;2023-02-28T00:08:51;98248.39;;;-0.85;67.13
34205;BME280;20471;49.680;20.074;2023-02-28T00:11:19;98252.04;;;-0.86;67.21
34205;BME280;20471;49.680;20.074;2023-02-28T00:13:47;98253.55;;;-0.87;67.41
34205;BME280;20471;49.680;20.074;2023-02-28T00:16:16;98262.10;;;-0.88;67.47
34205;BME280;20471;49.680;20.074;2023-02-28T00:18:44;98268.74;;;-0.89;67.36
34205;BME280;20471;49.680;20.074;2023-02-28T00:21:13;98271.77;;;-0.90;67.40
34205;BME280;20471;49.680;20.074;2023-02-28T00:23:41;98269.84;;;-0.90;67.57
34205;BME280;20471;49.680;20.074;2023-02-28T00:26:10;98270.52;;;-0.92;67.68
34205;BME280;20471;49.680;20.074;2023-02-28T00:28:38;98267.42;;;-0.93;67.78
34205;BME280;20471;49.680;20.074;2023-02-28T00:31:06;98266.25;;;-0.94;67.91
34205;BME280;20471;49.680;20.074;2023-02-28T00:33:34;98261.84;;;-0.94;68.03
34205;BME280;20471;49.680;20.074;2023-02-28T00:36:06;98264.02;;;-0.95;67.92
34205;BME280;20471;49.680;20.074;2023-02-28T00:38:34;98266.96;;;-0.96;67.91
34205;BME280;20471;49.680;20.074;2023-02-28T00:41:02;98270.14;;;-0.98;67.88
34205;BME280;20471;49.680;20.074;2023-02-28T00:43:34;98269.58;;;-1.00;67.70
34205;BME280;20471;49.680;20.074;2023-02-28T00:46:02;98275.86;;;-1.01;67.60
34205;BME280;20471;49.680;20.074;2023-02-28T00:48:30;98276.83;;;-1.02;67.50
34205;BME280;20471;49.680;20.074;2023-02-28T00:50:58;98278.45;;;-1.03;67.69
34205;BME280;20471;49.680;20.074;2023-02-28T00:53:27;98280.27;;;-1.03;67.79
34205;BME280;20471;49.680;20.074;2023-02-28T00:55:55;98278.81;;;-1.03;67.91
34205;BME280;20471;49.680;20.074;2023-02-28T00:58:23;98279.96;;;-1.04;67.94
34205;BME280;20471;49.680;20.074;2023-02-28T01:00:51;98278.79;;;-1.05;68.00
34205;BME280;20471;49.680;20.074;2023-02-28T01:03:20;98277.55;;;-1.05;68.02
34205;BME280;20471;49.680;20.074;2023-02-28T01:05:48;98276.55;;;-1.06;67.86
34205;BME280;20471;49.680;20.074;2023-02-28T01:08:16;98274.87;;;-1.07;67.81
34205;BME280;20471;49.680;20.074;2023-02-28T01:10:44;98273.74;;;-1.09;67.90
34205;BME280;20471;49.680;20.074;2023-02-28T01:13:13;98265.81;;;-1.09;67.96
34205;BME280;20471;49.680;20.074;2023-02-28T01:15:43;98263.81;;;-1.08;67.90
34205;BME280;20471;49.680;20.074;2023-02-28T01:18:13;98261.17;;;-1.08;67.92
34205;BME280;20471;49.680;20.074;2023-02-28T01:20:41;98255.92;;;-1.09;67.89
34205;BME280;20471;49.680;20.074;2023-02-28T01:23:09;98255.70;;;-1.11;67.77
34205;BME280;20471;49.680;20.074;2023-02-28T01:25:37;98258.16;;;-1.13;67.66
34205;BME280;20471;49.680;20.074;2023-02-28T01:28:05;98259.63;;;-1.16;67.60
34205;BME280;20471;49.680;20.074;2023-02-28T01:30:33;98262.27;;;-1.18;67.51
34205;BME280;20471;49.680;20.074;2023-02-28T01:33:01;98268.60;;;-1.20;67.63
34205;BME280;20471;49.680;20.074;2023-02-28T01:35:32;98271.83;;;-1.23;67.81
34205;BME280;20471;49.680;20.074;2023-02-28T01:38:00;98268.20;;;-1.26;67.79
34205;BME280;20471;49.680;20.074;2023-02-28T01:40:28;98266.14;;;-1.27;67.74
34205;BME280;20471;49.680;20.074;2023-02-28T01:42:56;98264.81;;;-1.28;67.56
34205;BME280;20471;49.680;20.074;2023-02-28T01:45:28;98260.50;;;-1.29;67.52
34205;BME280;20471;49.680;20.074;2023-02-28T01:48:02;98252.27;;;-1.30;67.41
34205;BME280;20471;49.680;20.074;2023-02-28T01:50:34;98249.13;;;-1.31;67.39
34205;BME280;20471;49.680;20.074;2023-02-28T01:53:04;98250.33;;;-1.33;67.34
34205;BME280;20471;49.680;20.074;2023-02-28T01:55:34;98247.73;;;-1.35;67.22
34205;BME280;20471;49.680;20.074;2023-02-28T01:58:03;98242.36;;;-1.39;67.21
34205;BME280;20471;49.680;20.074;2023-02-28T02:00:32;98241.56;;;-1.42;67.10
34205;BME280;20471;49.680;20.074;2023-02-28T02:03:01;98243.33;;;-1.47;67.08
34205;BME280;20471;49.680;20.074;2023-02-28T02:05:32;98245.41;;;-1.51;67.08
34205;BME280;20471;49.680;20.074;2023-02-28T02:08:04;98244.85;;;-1.55;67.00
34205;BME280;20471;49.680;20.074;2023-02-28T02:10:34;98247.63;;;-1.59;66.85
34205;BME280;20471;49.680;20.074;2023-02-28T02:15:55;98237.26;;;-1.69;66.93
34205;BME280;20471;49.680;20.074;2023-02-28T02:23:50;98231.25;;;-1.86;66.59
34205;BME280;20471;49.680;20.074;2023-02-28T02:34:29;98227.07;;;-2.10;66.31
34205;BME280;20471;49.680;20.074;2023-02-28T02:37:08;98224.60;;;-2.15;66.32
34205;BME280;20471;49.680;20.074;2023-02-28T02:42:27;98219.23;;;-2.30;66.19
34205;BME280;20471;49.680;20.074;2023-02-28T02:44:59;98219.93;;;-2.38;66.33
34205;BME280;20471;49.680;20.074;2023-02-28T02:47:29;98221.45;;;-2.44;66.41
34205;BME280;20471;49.680;20.074;2023-02-28T02:49:59;98224.33;;;-2.52;66.45
34205;BME280;20471;49.680;20.074;2023-02-28T02:52:31;98227.98;;;-2.61;66.44
34205;BME280;20471;49.680;20.074;2023-02-28T02:55:00;98232.02;;;-2.69;66.44
34205;BME280;20471;49.680;20.074;2023-02-28T02:57:31;98234.21;;;-2.74;66.52
34205;BME280;20471;49.680;20.074;2023-02-28T03:00:03;98231.35;;;-2.83;66.63
34205;BME280;20471;49.680;20.074;2023-02-28T03:02:34;98233.90;;;-2.93;66.73
34205;BME280;20471;49.680;20.074;2023-02-28T03:05:09;98235.01;;;-3.01;66.61
34205;BME280;20471;49.680;20.074;2023-02-28T03:07:42;98241.33;;;-3.10;66.87
34205;BME280;20471;49.680;20.074;2023-02-28T03:10:27;98245.17;;;-3.20;67.01
34205;BME280;20471;49.680;20.074;2023-02-28T03:13:00;98245.38;;;-3.31;67.14
34205;BME280;20471;49.680;20.074;2023-02-28T03:15:32;98250.09;;;-3.35;67.26
34205;BME280;20471;49.680;20.074;2023-02-28T03:18:06;98252.01;;;-3.35;67.37
34205;BME280;20471;49.680;20.074;2023-02-28T03:23:10;98258.06;;;-3.36;67.37
34205;BME280;20471;49.680;20.074;2023-02-28T03:33:12;98261.22;;;-3.46;67.16
34205;BME280;20471;49.680;20.074;2023-02-28T03:35:47;98262.97;;;-3.49;67.11
34205;BME280;20471;49.680;20.074;2023-02-28T03:38:22;98268.73;;;-3.53;67.16
34205;BME280;20471;49.680;20.074;2023-02-28T03:41:06;98271.08;;;-3.59;67.17
34205;BME280;20471;49.680;20.074;2023-02-28T03:43:37;98275.30;;;-3.67;67.23
34205;BME280;20471;49.680;20.074;2023-02-28T03:46:09;98276.18;;;-3.72;67.40
34205;BME280;20471;49.680;20.074;2023-02-28T03:48:40;98273.98;;;-3.76;67.41
34205;BME280;20471;49.680;20.074;2023-02-28T03:51:10;98278.94;;;-3.82;67.51
34205;BME280;20471;49.680;20.074;2023-02-28T03:53:42;98277.71;;;-3.85;67.44
34205;BME280;20471;49.680;20.074;2023-02-28T03:56:17;98279.88;;;-3.86;67.54
34205;BME280;20471;49.680;20.074;2023-02-28T03:58:51;98280.93;;;-3.86;67.55
34205;BME280;20471;49.680;20.074;2023-02-28T04:01:30;98282.23;;;-3.86;67.46
34205;BME280;20471;49.680;20.074;2023-02-28T04:04:00;98284.33;;;-3.89;67.37
34205;BME280;20471;49.680;20.074;2023-02-28T04:06:30;98287.14;;;-3.92;67.39
34205;BME280;20471;49.680;20.074;2023-02-28T04:08:59;98288.95;;;-3.95;67.33
34205;BME280;20471;49.680;20.074;2023-02-28T04:11:34;98289.91;;;-3.99;67.27
34205;BME280;20471;49.680;20.074;2023-02-28T04:14:04;98292.43;;;-4.03;67.32
34205;BME280;20471;49.680;20.074;2023-02-28T04:16:32;98289.27;;;-4.06;67.38
34205;BME280;20471;49.680;20.074;2023-02-28T04:19:01;98289.07;;;-4.08;67.56
34205;BME280;20471;49.680;20.074;2023-02-28T04:21:35;98293.52;;;-4.11;67.52
34205;BME280;20471;49.680;20.074;2023-02-28T04:24:05;98289.84;;;-4.14;67.48
34205;BME280;20471;49.680;20.074;2023-02-28T04:26:34;98289.45;;;-4.16;67.55
34205;BME280;20471;49.680;20.074;2023-02-28T04:29:03;98293.05;;;-4.18;67.65
34205;BME280;20471;49.680;20.074;2023-02-28T04:31:32;98296.30;;;-4.19;67.66
34205;BME280;20471;49.680;20.074;2023-02-28T04:34:00;98293.44;;;-4.21;67.72
34205;BME280;20471;49.680;20.074;2023-02-28T04:36:28;98287.95;;;-4.23;67.66
34205;BME280;20471;49.680;20.074;2023-02-28T04:38:56;98290.88;;;-4.25;67.65
34205;BME280;20471;49.680;20.074;2023-02-28T04:41:24;98290.14;;;-4.27;67.72
34205;BME280;20471;49.680;20.074;2023-02-28T04:43:52;98292.98;;;-4.30;67.64
34205;BME280;20471;49.680;20.074;2023-02-28T04:46:20;98296.33;;;-4.33;67.58
34205;BME280;20471;49.680;20.074;2023-02-28T04:48:48;98299.69;;;-4.36;67.60
34205;BME280;20471;49.680;20.074;2023-02-28T04:51:17;98297.69;;;-4.40;67.58
34205;BME280;20471;49.680;20.074;2023-02-28T04:53:46;98299.41;;;-4.43;67.67
34205;BME280;20471;49.680;20.074;2023-02-28T04:56:15;98300.40;;;-4.45;67.73
34205;BME280;20471;49.680;20.074;2023-02-28T04:58:43;98298.17;;;-4.46;67.94
34205;BME280;20471;49.680;20.074;2023-02-28T05:03:43;98297.20;;;-4.49;67.93
34205;BME280;20471;49.680;20.074;2023-02-28T05:06:11;98300.41;;;-4.50;67.99
34205;BME280;20471;49.680;20.074;2023-02-28T05:08:40;98296.53;;;-4.53;67.89
34205;BME280;20471;49.680;20.074;2023-02-28T05:11:30;98296.61;;;-4.57;67.89
34205;BME280;20471;49.680;20.074;2023-02-28T05:14:05;98297.38;;;-4.60;67.99
34205;BME280;20471;49.680;20.074;2023-02-28T05:16:33;98296.69;;;-4.66;68.20
34205;BME280;20471;49.680;20.074;2023-02-28T05:19:02;98296.06;;;-4.71;68.15
34205;BME280;20471;49.680;20.074;2023-02-28T05:21:34;98300.91;;;-4.72;68.21
34205;BME280;20471;49.680;20.074;2023-02-28T05:24:03;98301.80;;;-4.73;68.20
34205;BME280;20471;49.680;20.074;2023-02-28T05:26:34;98305.17;;;-4.73;68.24
34205;BME280;20471;49.680;20.074;2023-02-28T05:29:02;98308.02;;;-4.77;68.35
34205;BME280;20471;49.680;20.074;2023-02-28T05:31:31;98306.58;;;-4.79;68.36
34205;BME280;20471;49.680;20.074;2023-02-28T05:33:59;98312.10;;;-4.80;68.38
34205;BME280;20471;49.680;20.074;2023-02-28T05:36:27;98321.02;;;-4.80;68.50
34205;BME280;20471;49.680;20.074;2023-02-28T05:38:56;98327.01;;;-4.80;68.55
34205;BME280;20471;49.680;20.074;2023-02-28T05:41:24;98331.38;;;-4.80;68.56
34205;BME280;20471;49.680;20.074;2023-02-28T05:43:52;98331.70;;;-4.79;68.63
34205;BME280;20471;49.680;20.074;2023-02-28T05:46:20;98334.68;;;-4.79;68.72
34205;BME280;20471;49.680;20.074;2023-02-28T05:48:48;98339.52;;;-4.78;68.74
34205;BME280;20471;49.680;20.074;2023-02-28T05:51:16;98342.61;;;-4.77;68.86
34205;BME280;20471;49.680;20.074;2023-02-28T05:53:44;98344.33;;;-4.76;68.84
34205;BME280;20471;49.680;20.074;2023-02-28T05:56:13;98345.57;;;-4.76;68.88
34205;BME280;20471;49.680;20.074;2023-02-28T05:58:41;98349.13;;;-4.74;68.97
34205;BME280;20471;49.680;20.074;2023-02-28T06:01:19;98353.19;;;-4.72;68.91
34205;BME280;20471;49.680;20.074;2023-02-28T06:03:48;98348.72;;;-4.70;68.86
34205;BME280;20471;49.680;20.074;2023-02-28T06:06:16;98350.30;;;-4.67;69.06
34205;BME280;20471;49.680;20.074;2023-02-28T06:08:44;98357.34;;;-4.65;69.03
34205;BME280;20471;49.680;20.074;2023-02-28T06:11:12;98364.50;;;-4.64;69.07
34205;BME280;20471;49.680;20.074;2023-02-28T06:13:40;98365.34;;;-4.63;69.02
34205;BME280;20471;49.680;20.074;2023-02-28T06:16:10;98362.06;;;-4.61;69.19
34205;BME280;20471;49.680;20.074;2023-02-28T06:18:38;98365.17;;;-4.58;69.14
34205;BME280;20471;49.680;20.074;2023-02-28T06:21:06;98368.27;;;-4.54;69.29
34205;BME280;20471;49.680;20.074;2023-02-28T06:23:35;98368.01;;;-4.49;69.32
34205;BME280;20471;49.680;20.074;2023-02-28T06:26:03;98371.29;;;-4.46;69.31
34205;BME280;20471;49.680;20.074;2023-02-28T06:28:31;98374.86;;;-4.41;69.29
34205;BME280;20471;49.680;20.074;2023-02-28T06:31:04;98376.33;;;-4.37;69.44
34205;BME280;20471;49.680;20.074;2023-02-28T06:33:32;98375.56;;;-4.30;69.45
34205;BME280;20471;49.680;20.074;2023-02-28T06:36:00;98375.02;;;-4.24;69.66
34205;BME280;20471;49.680;20.074;2023-02-28T06:38:28;98374.54;;;-4.20;69.54
34205;BME280;20471;49.680;20.074;2023-02-28T06:40:57;98375.67;;;-4.15;69.42
34205;BME280;20471;49.680;20.074;2023-02-28T06:43:28;98376.06;;;-4.13;69.56
34205;BME280;20471;49.680;20.074;2023-02-28T06:45:59;98376.92;;;-4.10;69.58
34205;BME280;20471;49.680;20.074;2023-02-28T06:48:28;98375.27;;;-4.06;69.66
34205;BME280;20471;49.680;20.074;2023-02-28T06:51:03;98374.02;;;-3.97;69.52
34205;BME280;20471;49.680;20.074;2023-02-28T06:53:31;98373.52;;;-3.92;69.38
34205;BME280;20471;49.680;20.074;2023-02-28T06:55:59;98371.77;;;-3.87;69.45
34205;BME280;20471;49.680;20.074;2023-02-28T06:58:27;98369.67;;;-3.85;69.32
34205;BME280;20471;49.680;20.074;2023-02-28T07:00:55;98373.50;;;-3.81;69.11
34205;BME280;20471;49.680;20.074;2023-02-28T07:03:23;98372.73;;;-3.77;69.00
34205;BME280;20471;49.680;20.074;2023-02-28T07:05:51;98368.04;;;-3.70;68.91
34205;BME280;20471;49.680;20.074;2023-02-28T07:08:19;98370.63;;;-3.64;69.00
34205;BME280;20471;49.680;20.074;2023-02-28T07:10:47;98373.34;;;-3.57;69.11
34205;BME280;20471;49.680;20.074;2023-02-28T07:13:18;98374.90;;;-3.49;69.23
34205;BME280;20471;49.680;20.074;2023-02-28T07:16:01;98372.61;;;-3.41;69.15
34205;BME280;20471;49.680;20.074;2023-02-28T07:18:30;98372.02;;;-3.35;69.21
34205;BME280;20471;49.680;20.074;2023-02-28T07:20:58;98375.55;;;-3.27;69.09
34205;BME280;20471;49.680;20.074;2023-02-28T07:23:26;98377.63;;;-3.24;68.74
34205;BME280;20471;49.680;20.074;2023-02-28T07:25:54;98378.81;;;-3.20;68.47
34205;BME280;20471;49.680;20.074;2023-02-28T07:28:22;98380.13;;;-3.14;68.41
34205;BME280;20471;49.680;20.074;2023-02-28T07:30:50;98377.73;;;-3.07;68.38
34205;BME280;20471;49.680;20.074;2023-02-28T07:33:18;98377.66;;;-2.95;68.19
34205;BME280;20471;49.680;20.074;2023-02-28T07:35:46;98378.44;;;-2.84;67.88
34205;BME280;20471;49.680;20.074;2023-02-28T07:38:14;98379.37;;;-2.72;67.67
34205;BME280;20471;49.680;20.074;2023-02-28T07:40:42;98372.82;;;-2.59;67.41
34205;BME280;20471;49.680;20.074;2023-02-28T07:43:10;98368.65;;;-2.44;67.31
34205;BME280;20471;49.680;20.074;2023-02-28T07:45:38;98367.46;;;-2.33;66.97
34205;BME280;20471;49.680;20.074;2023-02-28T07:48:06;98360.27;;;-2.23;66.94
34205;BME280;20471;49.680;20.074;2023-02-28T07:50:36;98359.60;;;-2.14;66.87
34205;BME280;20471;49.680;20.074;2023-02-28T07:53:04;98364.76;;;-2.00;66.70
34205;BME280;20471;49.680;20.074;2023-02-28T07:55:32;98360.81;;;-1.84;66.58
34205;BME280;20471;49.680;20.074;2023-02-28T07:58:00;98359.89;;;-1.69;66.29
34205;BME280;20471;49.680;20.074;2023-02-28T08:00:29;98357.64;;;-1.53;66.24
34205;BME280;20471;49.680;20.074;2023-02-28T08:02:58;98352.45;;;-1.36;65.95
34205;BME280;20471;49.680;20.074;2023-02-28T08:05:26;98357.15;;;-1.19;65.68
34205;BME280;20471;49.680;20.074;2023-02-28T08:07:54;98357.70;;;-1.02;65.48
34205;BME280;20471;49.680;20.074;2023-02-28T08:10:22;98357.68;;;-0.86;65.27
34205;BME280;20471;49.680;20.074;2023-02-28T08:12:50;98359.65;;;-0.70;65.18
34205;BME280;20471;49.680;20.074;2023-02-28T08:15:18;98358.90;;;-0.56;64.65
34205;BME280;20471;49.680;20.074;2023-02-28T08:17:46;98357.23;;;-0.44;64.43
34205;BME280;20471;49.680;20.074;2023-02-28T08:20:14;98357.45;;;-0.38;63.50
34205;BME280;20471;49.680;20.074;2023-02-28T08:22:42;98360.61;;;-0.28;63.53
34205;BME280;20471;49.680;20.074;2023-02-28T08:25:11;98360.63;;;-0.13;63.31
34205;BME280;20471;49.680;20.074;2023-02-28T08:27:38;98362.48;;;-0.00;62.95
34205;BME280;20471;49.680;20.074;2023-02-28T08:30:07;98361.64;;;0.10;62.41
34205;BME280;20471;49.680;20.074;2023-02-28T08:32:36;98361.36;;;0.20;62.14
34205;BME280;20471;49.680;20.074;2023-02-28T08:35:04;98364.43;;;0.37;62.19
34205;BME280;20471;49.680;20.074;2023-02-28T08:37:32;98367.56;;;0.52;61.95
34205;BME280;20471;49.680;20.074;2023-02-28T08:40:00;98371.14;;;0.71;61.98
34205;BME280;20471;49.680;20.074;2023-02-28T08:42:30;98372.21;;;0.90;61.58
34205;BME280;20471;49.680;20.074;2023-02-28T08:44:59;98376.02;;;1.04;61.28
34205;BME280;20471;49.680;20.074;2023-02-28T08:47:27;98374.63;;;1.18;61.20
34205;BME280;20471;49.680;20.074;2023-02-28T08:49:55;98373.47;;;1.32;61.02
34205;BME280;20471;49.680;20.074;2023-02-28T08:52:23;98365.31;;;1.48;60.68
34205;BME280;20471;49.680;20.074;2023-02-28T08:54:51;98358.41;;;1.56;60.14
34205;BME280;20471;49.680;20.074;2023-02-28T08:57:19;98361.79;;;1.66;59.88
34205;BME280;20471;49.680;20.074;2023-02-28T08:59:47;98360.88;;;1.81;59.88
34205;BME280;20471;49.680;20.074;2023-02-28T09:02:15;98360.77;;;1.97;59.55
34205;BME280;20471;49.680;20.074;2023-02-28T09:04:43;98361.00;;;2.12;59.53
34205;BME280;20471;49.680;20.074;2023-02-28T09:07:12;98361.31;;;2.30;59.44
34205;BME280;20471;49.680;20.074;2023-02-28T09:09:40;98360.74;;;2.44;59.18
34205;BME280;20471;49.680;20.074;2023-02-28T09:12:28;98358.42;;;2.60;59.08
34205;BME280;20471;49.680;20.074;2023-02-28T09:14:59;98353.13;;;2.75;58.17
34205;BME280;20471;49.680;20.074;2023-02-28T09:17:27;98353.92;;;2.90;58.14
34205;BME280;20471;49.680;20.074;2023-02-28T09:19:56;98353.86;;;3.06;57.94
34205;BME280;20471;49.680;20.074;2023-02-28T09:22:24;98348.75;;;3.23;57.58
34205;BME280;20471;49.680;20.074;2023-02-28T09:24:52;98349.75;;;3.35;57.17
34205;BME280;20471;49.680;20.074;2023-02-28T09:27:20;98350.69;;;3.48;57.35
34205;BME280;20471;49.680;20.074;2023-02-28T09:29:48;98345.73;;;3.72;57.37
34205;BME280;20471;49.680;20.074;2023-02-28T09:32:16;98344.19;;;3.95;56.76
34205;BME280;20471;49.680;20.074;2023-02-28T09:34:45;98346.06;;;4.16;56.64
34205;BME280;20471;49.680;20.074;2023-02-28T09:37:13;98344.33;;;4.34;55.83
34205;BME280;20471;49.680;20.074;2023-02-28T09:39:41;98345.29;;;4.42;55.65
34205;BME280;20471;49.680;20.074;2023-02-28T09:42:12;98344.76;;;4.60;55.28
34205;BME280;20471;49.680;20.074;2023-02-28T09:44:45;98342.08;;;4.75;54.55
34205;BME280;20471;49.680;20.074;2023-02-28T09:49:55;98341.57;;;5.03;54.54
34205;BME280;20471;49.680;20.074;2023-02-28T09:52:27;98343.80;;;5.16;53.86
34205;BME280;20471;49.680;20.074;2023-02-28T09:55:00;98339.77;;;5.27;53.84
34205;BME280;20471;49.680;20.074;2023-02-28T09:57:34;98333.83;;;5.42;53.66
34205;BME280;20471;49.680;20.074;2023-02-28T10:00:10;98331.27;;;5.62;52.95
34205;BME280;20471;49.680;20.074;2023-02-28T10:05:22;98329.14;;;5.84;52.67
34205;BME280;20471;49.680;20.074;2023-02-28T10:08:01;98331.16;;;6.00;52.60
34205;BME280;20471;49.680;20.074;2023-02-28T10:10:42;98333.63;;;6.11;51.40
34205;BME280;20471;49.680;20.074;2023-02-28T10:13:25;98333.15;;;6.16;50.96
34205;BME280;20471;49.680;20.074;2023-02-28T10:15:58;98333.17;;;6.24;51.03
34205;BME280;20471;49.680;20.074;2023-02-28T10:18:30;98332.45;;;6.37;51.18
34205;BME280;20471;49.680;20.074;2023-02-28T10:21:02;98334.41;;;6.49;50.91
34205;BME280;20471;49.680;20.074;2023-02-28T10:23:32;98333.52;;;6.61;50.29
34205;BME280;20471;49.680;20.074;2023-02-28T10:26:14;98329.46;;;6.60;49.47
34205;BME280;20471;49.680;20.074;2023-02-28T10:28:46;98328.17;;;6.65;50.28
34205;BME280;20471;49.680;20.074;2023-02-28T10:31:16;98324.93;;;6.86;50.48
34205;BME280;20471;49.680;20.074;2023-02-28T10:33:45;98322.36;;;7.06;50.22
34205;BME280;20471;49.680;20.074;2023-02-28T10:36:15;98319.35;;;7.18;49.22
34205;BME280;20471;49.680;20.074;2023-02-28T10:38:44;98317.27;;;7.21;49.10
34205;BME280;20471;49.680;20.074;2023-02-28T10:41:16;98314.15;;;7.22;48.41
34205;BME280;20471;49.680;20.074;2023-02-28T10:43:45;98312.00;;;7.22;48.32
34205;BME280;20471;49.680;20.074;2023-02-28T10:46:14;98307.64;;;7.27;48.30
34205;BME280;20471;49.680;20.074;2023-02-28T10:49:05;98301.74;;;7.40;48.30
34205;BME280;20471;49.680;20.074;2023-02-28T10:51:34;98301.84;;;7.44;48.02
34205;BME280;20471;49.680;20.074;2023-02-28T10:54:02;98301.35;;;7.61;48.15
34205;BME280;20471;49.680;20.074;2023-02-28T10:56:31;98297.64;;;7.84;48.05
34205;BME280;20471;49.680;20.074;2023-02-28T11:01:44;98297.20;;;8.19;47.02
34205;BME280;20471;49.680;20.074;2023-02-28T11:06:57;98292.77;;;8.46;46.86
34205;BME280;20471;49.680;20.074;2023-02-28T11:11:56;98283.40;;;8.82;46.10
34205;BME280;20471;49.680;20.074;2023-02-28T11:14:26;98280.84;;;8.91;45.99
34205;BME280;20471;49.680;20.074;2023-02-28T11:16:56;98277.73;;;8.96;45.41
34205;BME280;20471;49.680;20.074;2023-02-28T11:19:27;98272.41;;;9.02;45.06
34205;BME280;20471;49.680;20.074;2023-02-28T11:22:00;98271.65;;;9.20;45.60
34205;BME280;20471;49.680;20.074;2023-02-28T11:24:29;98269.13;;;9.35;44.77
34205;BME280;20471;49.680;20.074;2023-02-28T11:26:58;98260.19;;;9.32;44.17
34205;BME280;20471;49.680;20.074;2023-02-28T11:29:28;98259.05;;;9.27;44.29
34205;BME280;20471;49.680;20.074;2023-02-28T11:34:35;98256.76;;;9.25;43.46
34205;BME280;20471;49.680;20.074;2023-02-28T11:37:04;98252.83;;;9.28;44.48
34205;BME280;20471;49.680;20.074;2023-02-28T11:39:33;98246.48;;;9.46;44.03
34205;BME280;20471;49.680;20.074;2023-02-28T11:55:45;98235.97;;;10.08;41.76
34205;BME280;20471;49.680;20.074;2023-02-28T12:08:39;98249.64;;;9.82;42.32
34205;BME280;20471;49.680;20.074;2023-02-28T12:14:18;98255.44;;;9.93;42.80
34205;BME280;20471;49.680;20.074;2023-02-28T12:16:58;98252.94;;;10.11;42.27
34205;BME280;20471;49.680;20.074;2023-02-28T12:19:40;98249.38;;;10.18;42.28
34205;BME280;20471;49.680;20.074;2023-02-28T12:27:34;98245.40;;;10.12;41.80
34205;BME280;20471;49.680;20.074;2023-02-28T12:30:08;98240.73;;;10.11;42.09
34205;BME280;20471;49.680;20.074;2023-02-28T12:32:41;98240.71;;;10.06;41.58
34205;BME280;20471;49.680;20.074;2023-02-28T12:35:14;98236.16;;;9.95;41.49
34205;BME280;20471;49.680;20.074;2023-02-28T12:37:49;98234.71;;;9.92;41.41
34205;BME280;20471;49.680;20.074;2023-02-28T12:40:25;98236.88;;;9.95;42.17
34205;BME280;20471;49.680;20.074;2023-02-28T12:42:56;98238.78;;;10.07;42.10
34205;BME280;20471;49.680;20.074;2023-02-28T12:45:27;98240.11;;;10.19;42.15
34205;BME280;20471;49.680;20.074;2023-02-28T12:48:04;98235.48;;;10.37;42.51
34205;BME280;20471;49.680;20.074;2023-02-28T12:50:34;98231.50;;;10.48;41.74
34205;BME280;20471;49.680;20.074;2023-02-28T12:53:03;98229.06;;;10.45;41.32
34205;BME280;20471;49.680;20.074;2023-02-28T12:58:48;98230.48;;;10.47;41.10
34205;BME280;20471;49.680;20.074;2023-02-28T13:01:26;98226.16;;;10.63;41.34
34205;BME280;20471;49.680;20.074;2023-02-28T13:09:03;98223.17;;;10.95;40.70
34205;BME280;20471;49.680;20.074;2023-02-28T13:11:51;98222.48;;;10.83;40.43
34205;BME280;20471;49.680;20.074;2023-02-28T13:16:55;98218.02;;;10.83;40.32
34205;BME280;20471;49.680;20.074;2023-02-28T13:19:31;98214.95;;;11.01;39.54
34205;BME280;20471;49.680;20.074;2023-02-28T13:22:00;98213.08;;;10.96;38.71
34205;BME280;20471;49.680;20.074;2023-02-28T13:24:50;98207.33;;;10.82;38.97
34205;BME280;20471;49.680;20.074;2023-02-28T13:29:51;98203.60;;;10.69;39.81
34205;BME280;20471;49.680;20.074;2023-02-28T13:39:56;98193.98;;;10.72;39.50
34205;BME280;20471;49.680;20.074;2023-02-28T13:42:35;98193.89;;;10.62;40.08
34205;BME280;20471;49.680;20.074;2023-02-28T13:47:35;98188.86;;;10.73;40.17
34205;BME280;20471;49.680;20.074;2023-02-28T13:50:23;98186.36;;;10.63;39.54
34205;BME280;20471;49.680;20.074;2023-02-28T13:58:19;98187.87;;;10.31;40.40
34205;BME280;20471;49.680;20.074;2023-02-28T14:08:37;98175.55;;;10.05;39.91
34205;BME280;20471;49.680;20.074;2023-02-28T14:11:08;98176.42;;;9.95;40.54
34205;BME280;20471;49.680;20.074;2023-02-28T14:13:39;98178.66;;;9.95;40.28
34205;BME280;20471;49.680;20.074;2023-02-28T14:16:11;98176.70;;;9.85;40.70
34205;BME280;20471;49.680;20.074;2023-02-28T14:18:51;98176.50;;;9.89;41.05
34205;BME280;20471;49.680;20.074;2023-02-28T14:21:24;98176.95;;;9.96;40.72
34205;BME280;20471;49.680;20.074;2023-02-28T14:24:02;98175.77;;;9.89;40.29
34205;BME280;20471;49.680;20.074;2023-02-28T14:26:49;98172.12;;;9.59;40.01
34205;BME280;20471;49.680;20.074;2023-02-28T14:32:13;98173.05;;;9.28;40.68
34205;BME280;20471;49.680;20.074;2023-02-28T14:34:49;98174.24;;;9.27;41.17
34205;BME280;20471;49.680;20.074;2023-02-28T14:37:27;98172.52;;;9.29;40.95
34205;BME280;20471;49.680;20.074;2023-02-28T14:39:56;98168.68;;;9.24;41.17
34205;BME280;20471;49.680;20.074;2023-02-28T14:42:31;98167.02;;;9.26;41.30
34205;BME280;20471;49.680;20.074;2023-02-28T14:45:00;98164.80;;;9.16;40.86
34205;BME280;20471;49.680;20.074;2023-02-28T14:47:30;98161.23;;;8.98;41.07
34205;BME280;20471;49.680;20.074;2023-02-28T14:49:59;98162.94;;;8.92;41.00
34205;BME280;20471;49.680;20.074;2023-02-28T14:52:30;98167.05;;;8.88;41.26
34205;BME280;20471;49.680;20.074;2023-02-28T14:54:59;98165.15;;;8.81;41.45
34205;BME280;20471;49.680;20.074;2023-02-28T14:57:32;98169.86;;;8.74;41.48
34205;BME280;20471;49.680;20.074;2023-02-28T15:00:04;98171.89;;;8.60;41.46
34205;BME280;20471;49.680;20.074;2023-02-28T15:02:37;98169.84;;;8.51;41.59
34205;BME280;20471;49.680;20.074;2023-02-28T15:07:43;98170.93;;;8.32;41.63
34205;BME280;20471;49.680;20.074;2023-02-28T15:10:24;98171.84;;;8.15;41.69
34205;BME280;20471;49.680;20.074;2023-02-28T15:12:54;98176.80;;;7.99;41.87